Black Creek, New York
Current Conditions -  °F | °C
As of 5:55 PM on Monday 24 Nov 2014 (Local Time) from KOLE Reporting Station
Overcast Overcast  
Wind Chill: 11°   Ceiling: 2500
Heat Index: 11°   Visibility: 10mi
Dew Point: 10°   Wind: 15mph
Humidity: 94%   Direction: 240°WSW
Pressure: 29.5"   Gusts: 29mph
Location:  42.28°N, 78.23°W
Report Text: KOLE 242255Z AUTO 24013G25KT 10SM BKN025 BKN043 OVC050 11/10 A2950 RMK AO2
Loading
Personal Weather Stations






























Interactive Weather Map New forecast layout! Learn more

10-Day Weather Forecast

Advertisements
Track Severe Weather on mobile